sensor_id;sensor_type;location;lat;lon;timestamp;temperature;humidity
4749;DHT22;2388;53.582;9.962;2023-07-24T00:00:43;18.30;99.90
4749;DHT22;2388;53.582;9.962;2023-07-24T00:03:09;18.30;99.90
4749;DHT22;2388;53.582;9.962;2023-07-24T00:05:34;18.30;99.90
4749;DHT22;2388;53.582;9.962;2023-07-24T00:08:00;18.30;99.90
4749;DHT22;2388;53.582;9.962;2023-07-24T00:10:26;18.30;99.90
4749;DHT22;2388;53.582;9.962;2023-07-24T00:12:51;18.20;99.90
4749;DHT22;2388;53.582;9.962;2023-07-24T00:15:17;18.30;99.90
4749;DHT22;2388;53.582;9.962;2023-07-24T00:17:42;18.20;99.90
4749;DHT22;2388;53.582;9.962;2023-07-24T00:20:08;18.20;99.90
4749;DHT22;2388;53.582;9.962;2023-07-24T00:22:33;18.20;99.90
4749;DHT22;2388;53.582;9.962;2023-07-24T00:24:59;18.20;99.90
4749;DHT22;2388;53.582;9.962;2023-07-24T00:27:24;18.20;99.90
4749;DHT22;2388;53.582;9.962;2023-07-24T00:29:50;18.30;99.90
4749;DHT22;2388;53.582;9.962;2023-07-24T00:32:15;18.30;99.90
4749;DHT22;2388;53.582;9.962;2023-07-24T00:34:41;18.20;99.90
4749;DHT22;2388;53.582;9.962;2023-07-24T00:37:06;18.20;99.90
4749;DHT22;2388;53.582;9.962;2023-07-24T00:39:32;18.20;99.90
4749;DHT22;2388;53.582;9.962;2023-07-24T00:41:57;18.20;99.90
4749;DHT22;2388;53.582;9.962;2023-07-24T00:44:23;18.20;99.90
4749;DHT22;2388;53.582;9.962;2023-07-24T00:46:49;18.20;99.90
4749;DHT22;2388;53.582;9.962;2023-07-24T00:49:14;18.20;99.90
4749;DHT22;2388;53.582;9.962;2023-07-24T00:51:40;18.10;99.90
4749;DHT22;2388;53.582;9.962;2023-07-24T00:54:06;18.10;99.90
4749;DHT22;2388;53.582;9.962;2023-07-24T00:56:32;18.20;99.90
4749;DHT22;2388;53.582;9.962;2023-07-24T00:58:59;18.10;99.90
4749;DHT22;2388;53.582;9.962;2023-07-24T01:01:25;18.10;99.90
4749;DHT22;2388;53.582;9.962;2023-07-24T01:03:51;18.20;99.90
4749;DHT22;2388;53.582;9.962;2023-07-24T01:06:17;18.20;99.90
4749;DHT22;2388;53.582;9.962;2023-07-24T01:08:42;18.20;99.90
4749;DHT22;2388;53.582;9.962;2023-07-24T01:11:16;18.20;99.90
4749;DHT22;2388;53.582;9.962;2023-07-24T01:13:52;18.20;99.90
4749;DHT22;2388;53.582;9.962;2023-07-24T01:16:21;18.20;99.90
4749;DHT22;2388;53.582;9.962;2023-07-24T01:18:51;18.20;99.90
4749;DHT22;2388;53.582;9.962;2023-07-24T01:21:21;18.20;99.90
4749;DHT22;2388;53.582;9.962;2023-07-24T01:23:59;18.20;99.90
4749;DHT22;2388;53.582;9.962;2023-07-24T01:26:28;18.20;99.90
4749;DHT22;2388;53.582;9.962;2023-07-24T01:28:54;18.20;99.90
4749;DHT22;2388;53.582;9.962;2023-07-24T01:31:19;18.20;99.90
4749;DHT22;2388;53.582;9.962;2023-07-24T01:33:45;18.20;99.90
4749;DHT22;2388;53.582;9.962;2023-07-24T01:36:11;18.20;99.90
4749;DHT22;2388;53.582;9.962;2023-07-24T01:38:38;18.20;99.90
4749;DHT22;2388;53.582;9.962;2023-07-24T01:41:04;18.20;99.90
4749;DHT22;2388;53.582;9.962;2023-07-24T01:43:30;18.20;99.90
4749;DHT22;2388;53.582;9.962;2023-07-24T01:45:57;18.20;99.90
4749;DHT22;2388;53.582;9.962;2023-07-24T01:48:23;18.20;99.90
4749;DHT22;2388;53.582;9.962;2023-07-24T01:50:48;18.20;99.90
4749;DHT22;2388;53.582;9.962;2023-07-24T01:53:14;18.20;99.90
4749;DHT22;2388;53.582;9.962;2023-07-24T01:55:39;18.20;99.90
4749;DHT22;2388;53.582;9.962;2023-07-24T01:58:05;18.20;99.90
4749;DHT22;2388;53.582;9.962;2023-07-24T02:00:30;18.20;99.90
4749;DHT22;2388;53.582;9.962;2023-07-24T02:02:56;18.20;99.90
4749;DHT22;2388;53.582;9.962;2023-07-24T02:05:22;18.20;99.90
4749;DHT22;2388;53.582;9.962;2023-07-24T02:07:47;18.20;99.90
4749;DHT22;2388;53.582;9.962;2023-07-24T02:10:13;18.20;99.90
4749;DHT22;2388;53.582;9.962;2023-07-24T02:12:38;18.20;99.90
4749;DHT22;2388;53.582;9.962;2023-07-24T02:15:04;18.20;99.90
4749;DHT22;2388;53.582;9.962;2023-07-24T02:17:29;18.20;99.90
4749;DHT22;2388;53.582;9.962;2023-07-24T02:19:55;18.20;99.90
4749;DHT22;2388;53.582;9.962;2023-07-24T02:22:20;18.20;99.90
4749;DHT22;2388;53.582;9.962;2023-07-24T02:24:46;18.20;99.90
4749;DHT22;2388;53.582;9.962;2023-07-24T02:27:25;18.10;99.90
4749;DHT22;2388;53.582;9.962;2023-07-24T02:29:51;18.10;99.90
4749;DHT22;2388;53.582;9.962;2023-07-24T02:32:17;18.10;99.90
4749;DHT22;2388;53.582;9.962;2023-07-24T02:34:43;18.10;99.90
4749;DHT22;2388;53.582;9.962;2023-07-24T02:37:08;18.10;99.90
4749;DHT22;2388;53.582;9.962;2023-07-24T02:39:34;18.10;99.90
4749;DHT22;2388;53.582;9.962;2023-07-24T02:41:59;18.10;99.90
4749;DHT22;2388;53.582;9.962;2023-07-24T02:44:25;18.10;99.90
4749;DHT22;2388;53.582;9.962;2023-07-24T02:46:50;18.10;99.90
4749;DHT22;2388;53.582;9.962;2023-07-24T02:49:15;18.10;99.90
4749;DHT22;2388;53.582;9.962;2023-07-24T02:51:41;18.10;99.90
4749;DHT22;2388;53.582;9.962;2023-07-24T02:54:06;18.00;99.90
4749;DHT22;2388;53.582;9.962;2023-07-24T02:56:32;18.00;99.90
4749;DHT22;2388;53.582;9.962;2023-07-24T02:58:57;18.00;99.90
4749;DHT22;2388;53.582;9.962;2023-07-24T03:01:23;18.00;99.90
4749;DHT22;2388;53.582;9.962;2023-07-24T03:03:48;18.00;99.90
4749;DHT22;2388;53.582;9.962;2023-07-24T03:06:15;18.10;99.90
4749;DHT22;2388;53.582;9.962;2023-07-24T03:08:40;18.00;99.90
4749;DHT22;2388;53.582;9.962;2023-07-24T03:11:06;18.00;99.90
4749;DHT22;2388;53.582;9.962;2023-07-24T03:13:31;18.10;99.90
4749;DHT22;2388;53.582;9.962;2023-07-24T03:15:57;18.10;99.90
4749;DHT22;2388;53.582;9.962;2023-07-24T03:18:23;18.10;99.90
4749;DHT22;2388;53.582;9.962;2023-07-24T03:20:49;18.10;99.90
4749;DHT22;2388;53.582;9.962;2023-07-24T03:23:14;18.10;99.90
4749;DHT22;2388;53.582;9.962;2023-07-24T03:25:40;18.10;99.90
4749;DHT22;2388;53.582;9.962;2023-07-24T03:28:05;18.20;99.90
4749;DHT22;2388;53.582;9.962;2023-07-24T03:30:31;18.10;99.90
4749;DHT22;2388;53.582;9.962;2023-07-24T03:32:57;18.20;99.90
4749;DHT22;2388;53.582;9.962;2023-07-24T03:35:23;18.10;99.90
4749;DHT22;2388;53.582;9.962;2023-07-24T03:37:48;18.10;99.90
4749;DHT22;2388;53.582;9.962;2023-07-24T03:40:14;18.10;99.90
4749;DHT22;2388;53.582;9.962;2023-07-24T03:42:41;18.10;99.90
4749;DHT22;2388;53.582;9.962;2023-07-24T03:45:07;18.10;99.90
4749;DHT22;2388;53.582;9.962;2023-07-24T03:47:32;18.10;99.90
4749;DHT22;2388;53.582;9.962;2023-07-24T03:49:58;18.00;99.90
4749;DHT22;2388;53.582;9.962;2023-07-24T03:52:23;18.00;99.90
4749;DHT22;2388;53.582;9.962;2023-07-24T03:54:49;18.00;99.90
4749;DHT22;2388;53.582;9.962;2023-07-24T03:57:14;18.00;99.90
4749;DHT22;2388;53.582;9.962;2023-07-24T03:59:40;17.90;99.90
4749;DHT22;2388;53.582;9.962;2023-07-24T04:02:05;17.90;99.90
4749;DHT22;2388;53.582;9.962;2023-07-24T04:04:31;17.90;99.90
4749;DHT22;2388;53.582;9.962;2023-07-24T04:06:57;17.90;99.90
4749;DHT22;2388;53.582;9.962;2023-07-24T04:09:22;17.80;99.90
4749;DHT22;2388;53.582;9.962;2023-07-24T04:11:48;17.80;99.90
4749;DHT22;2388;53.582;9.962;2023-07-24T04:14:13;17.80;99.90
4749;DHT22;2388;53.582;9.962;2023-07-24T04:16:39;17.80;99.90
4749;DHT22;2388;53.582;9.962;2023-07-24T04:19:04;17.80;99.90
4749;DHT22;2388;53.582;9.962;2023-07-24T04:21:30;17.80;99.90
4749;DHT22;2388;53.582;9.962;2023-07-24T04:23:56;17.80;99.90
4749;DHT22;2388;53.582;9.962;2023-07-24T04:26:21;17.80;99.90
4749;DHT22;2388;53.582;9.962;2023-07-24T04:28:47;17.80;99.90
4749;DHT22;2388;53.582;9.962;2023-07-24T04:31:12;17.80;99.90
4749;DHT22;2388;53.582;9.962;2023-07-24T04:33:38;17.80;99.90
4749;DHT22;2388;53.582;9.962;2023-07-24T04:36:04;17.80;99.90
4749;DHT22;2388;53.582;9.962;2023-07-24T04:38:30;17.80;99.90
4749;DHT22;2388;53.582;9.962;2023-07-24T04:40:55;17.80;99.90
4749;DHT22;2388;53.582;9.962;2023-07-24T04:43:21;17.80;99.90
4749;DHT22;2388;53.582;9.962;2023-07-24T04:45:46;17.90;99.90
4749;DHT22;2388;53.582;9.962;2023-07-24T04:48:12;17.90;99.90
4749;DHT22;2388;53.582;9.962;2023-07-24T04:50:37;17.90;99.90
4749;DHT22;2388;53.582;9.962;2023-07-24T04:53:02;17.80;99.90
4749;DHT22;2388;53.582;9.962;2023-07-24T04:55:28;17.90;99.90
4749;DHT22;2388;53.582;9.962;2023-07-24T04:57:53;17.90;99.90
4749;DHT22;2388;53.582;9.962;2023-07-24T05:00:19;17.90;99.90
4749;DHT22;2388;53.582;9.962;2023-07-24T05:02:44;18.00;99.90
4749;DHT22;2388;53.582;9.962;2023-07-24T05:05:10;17.90;99.90
4749;DHT22;2388;53.582;9.962;2023-07-24T05:07:36;18.00;99.90
4749;DHT22;2388;53.582;9.962;2023-07-24T05:10:01;18.00;99.90
4749;DHT22;2388;53.582;9.962;2023-07-24T05:12:27;18.00;99.90
4749;DHT22;2388;53.582;9.962;2023-07-24T05:14:52;18.00;99.90
4749;DHT22;2388;53.582;9.962;2023-07-24T05:17:18;18.00;99.90
4749;DHT22;2388;53.582;9.962;2023-07-24T05:19:43;18.10;99.90
4749;DHT22;2388;53.582;9.962;2023-07-24T05:22:09;18.10;99.90
4749;DHT22;2388;53.582;9.962;2023-07-24T05:24:36;18.10;99.90
4749;DHT22;2388;53.582;9.962;2023-07-24T05:27:02;18.10;99.90
4749;DHT22;2388;53.582;9.962;2023-07-24T05:29:27;18.10;99.90
4749;DHT22;2388;53.582;9.962;2023-07-24T05:31:53;18.20;99.90
4749;DHT22;2388;53.582;9.962;2023-07-24T05:34:18;18.20;99.90
4749;DHT22;2388;53.582;9.962;2023-07-24T05:36:44;18.20;99.90
4749;DHT22;2388;53.582;9.962;2023-07-24T05:39:09;18.30;99.90
4749;DHT22;2388;53.582;9.962;2023-07-24T05:41:35;18.30;99.90
4749;DHT22;2388;53.582;9.962;2023-07-24T05:44:00;18.30;99.90
4749;DHT22;2388;53.582;9.962;2023-07-24T05:46:25;18.30;99.90
4749;DHT22;2388;53.582;9.962;2023-07-24T05:48:51;18.30;99.90
4749;DHT22;2388;53.582;9.962;2023-07-24T05:51:16;18.30;99.90
4749;DHT22;2388;53.582;9.962;2023-07-24T05:53:42;18.30;99.90
4749;DHT22;2388;53.582;9.962;2023-07-24T05:56:07;18.30;99.90
4749;DHT22;2388;53.582;9.962;2023-07-24T05:58:33;18.30;99.90
4749;DHT22;2388;53.582;9.962;2023-07-24T06:00:59;18.40;99.90
4749;DHT22;2388;53.582;9.962;2023-07-24T06:03:25;18.40;99.90
4749;DHT22;2388;53.582;9.962;2023-07-24T06:05:54;18.40;99.90
4749;DHT22;2388;53.582;9.962;2023-07-24T06:08:20;18.40;99.90
4749;DHT22;2388;53.582;9.962;2023-07-24T06:10:47;18.40;99.90
4749;DHT22;2388;53.582;9.962;2023-07-24T06:13:13;18.40;99.90
4749;DHT22;2388;53.582;9.962;2023-07-24T06:15:39;18.40;99.90
4749;DHT22;2388;53.582;9.962;2023-07-24T06:18:05;18.40;99.90
4749;DHT22;2388;53.582;9.962;2023-07-24T06:20:30;18.40;99.90
4749;DHT22;2388;53.582;9.962;2023-07-24T06:22:56;18.40;99.90
4749;DHT22;2388;53.582;9.962;2023-07-24T06:25:21;18.40;99.90
4749;DHT22;2388;53.582;9.962;2023-07-24T06:27:47;18.50;99.90
4749;DHT22;2388;53.582;9.962;2023-07-24T06:30:12;18.60;99.90
4749;DHT22;2388;53.582;9.962;2023-07-24T06:32:37;18.60;99.90
4749;DHT22;2388;53.582;9.962;2023-07-24T06:35:03;18.70;99.90
4749;DHT22;2388;53.582;9.962;2023-07-24T06:37:29;18.70;99.90
4749;DHT22;2388;53.582;9.962;2023-07-24T06:39:54;18.70;99.90
4749;DHT22;2388;53.582;9.962;2023-07-24T06:42:20;18.70;99.90
4749;DHT22;2388;53.582;9.962;2023-07-24T06:44:45;18.80;99.90
4749;DHT22;2388;53.582;9.962;2023-07-24T06:47:11;18.80;99.90
4749;DHT22;2388;53.582;9.962;2023-07-24T06:49:36;18.70;99.90
4749;DHT22;2388;53.582;9.962;2023-07-24T06:52:02;18.80;99.90
4749;DHT22;2388;53.582;9.962;2023-07-24T06:54:27;18.70;99.90
4749;DHT22;2388;53.582;9.962;2023-07-24T06:56:53;18.70;99.90
4749;DHT22;2388;53.582;9.962;2023-07-24T06:59:18;18.80;99.90
4749;DHT22;2388;53.582;9.962;2023-07-24T07:01:44;18.80;99.90
4749;DHT22;2388;53.582;9.962;2023-07-24T07:04:09;18.80;99.90
4749;DHT22;2388;53.582;9.962;2023-07-24T07:06:35;18.80;99.90
4749;DHT22;2388;53.582;9.962;2023-07-24T07:09:00;18.80;99.90
4749;DHT22;2388;53.582;9.962;2023-07-24T07:11:26;18.70;99.90
4749;DHT22;2388;53.582;9.962;2023-07-24T07:13:51;18.80;99.90
4749;DHT22;2388;53.582;9.962;2023-07-24T07:16:17;18.80;99.90
4749;DHT22;2388;53.582;9.962;2023-07-24T07:18:44;18.70;99.90
4749;DHT22;2388;53.582;9.962;2023-07-24T07:21:10;18.70;99.90
4749;DHT22;2388;53.582;9.962;2023-07-24T07:23:35;18.70;99.90
4749;DHT22;2388;53.582;9.962;2023-07-24T07:26:01;18.70;99.90
4749;DHT22;2388;53.582;9.962;2023-07-24T07:28:27;18.70;99.90
4749;DHT22;2388;53.582;9.962;2023-07-24T07:30:54;18.70;99.90
4749;DHT22;2388;53.582;9.962;2023-07-24T07:33:19;18.70;99.90
4749;DHT22;2388;53.582;9.962;2023-07-24T07:35:47;18.80;99.90
4749;DHT22;2388;53.582;9.962;2023-07-24T07:38:13;18.70;99.90
4749;DHT22;2388;53.582;9.962;2023-07-24T07:40:38;18.80;99.90
4749;DHT22;2388;53.582;9.962;2023-07-24T07:43:06;18.70;99.90
4749;DHT22;2388;53.582;9.962;2023-07-24T07:45:32;18.70;99.90
4749;DHT22;2388;53.582;9.962;2023-07-24T07:47:58;18.70;99.90
4749;DHT22;2388;53.582;9.962;2023-07-24T07:50:23;18.70;99.90
4749;DHT22;2388;53.582;9.962;2023-07-24T07:52:50;18.70;99.90
4749;DHT22;2388;53.582;9.962;2023-07-24T07:55:16;18.80;99.90
4749;DHT22;2388;53.582;9.962;2023-07-24T07:57:42;18.80;99.90
4749;DHT22;2388;53.582;9.962;2023-07-24T08:00:08;18.80;99.90
4749;DHT22;2388;53.582;9.962;2023-07-24T08:02:33;18.80;99.90
4749;DHT22;2388;53.582;9.962;2023-07-24T08:04:59;18.80;99.90
4749;DHT22;2388;53.582;9.962;2023-07-24T08:07:25;18.90;99.90
4749;DHT22;2388;53.582;9.962;2023-07-24T08:09:50;18.90;99.90
4749;DHT22;2388;53.582;9.962;2023-07-24T08:12:16;18.90;99.90
4749;DHT22;2388;53.582;9.962;2023-07-24T08:14:41;18.90;99.90
4749;DHT22;2388;53.582;9.962;2023-07-24T08:17:07;19.00;99.90
4749;DHT22;2388;53.582;9.962;2023-07-24T08:19:32;19.00;99.90
4749;DHT22;2388;53.582;9.962;2023-07-24T08:21:58;19.00;99.90
4749;DHT22;2388;53.582;9.962;2023-07-24T08:24:23;19.00;99.90
4749;DHT22;2388;53.582;9.962;2023-07-24T08:26:49;19.00;99.90
4749;DHT22;2388;53.582;9.962;2023-07-24T08:29:15;19.00;99.90
4749;DHT22;2388;53.582;9.962;2023-07-24T08:31:40;19.10;99.90
4749;DHT22;2388;53.582;9.962;2023-07-24T08:34:06;19.10;99.90
4749;DHT22;2388;53.582;9.962;2023-07-24T08:36:31;19.10;99.90
4749;DHT22;2388;53.582;9.962;2023-07-24T08:38:57;19.10;99.90
4749;DHT22;2388;53.582;9.962;2023-07-24T08:41:22;19.10;99.90
4749;DHT22;2388;53.582;9.962;2023-07-24T08:43:48;19.10;99.90
4749;DHT22;2388;53.582;9.962;2023-07-24T08:46:17;19.10;99.90
4749;DHT22;2388;53.582;9.962;2023-07-24T08:48:43;19.10;99.90
4749;DHT22;2388;53.582;9.962;2023-07-24T08:51:10;19.10;99.90
4749;DHT22;2388;53.582;9.962;2023-07-24T08:53:38;19.20;99.90
4749;DHT22;2388;53.582;9.962;2023-07-24T08:56:05;19.20;99.90
4749;DHT22;2388;53.582;9.962;2023-07-24T08:58:31;19.30;99.90
4749;DHT22;2388;53.582;9.962;2023-07-24T09:00:58;19.30;99.90
4749;DHT22;2388;53.582;9.962;2023-07-24T09:03:24;19.30;99.90
4749;DHT22;2388;53.582;9.962;2023-07-24T09:05:50;19.20;99.90
4749;DHT22;2388;53.582;9.962;2023-07-24T09:08:15;19.30;99.90
4749;DHT22;2388;53.582;9.962;2023-07-24T09:10:41;19.30;99.90
4749;DHT22;2388;53.582;9.962;2023-07-24T09:13:07;19.40;99.90
4749;DHT22;2388;53.582;9.962;2023-07-24T09:15:45;19.40;99.90
4749;DHT22;2388;53.582;9.962;2023-07-24T09:18:10;19.50;99.90
4749;DHT22;2388;53.582;9.962;2023-07-24T09:20:40;19.60;99.90
4749;DHT22;2388;53.582;9.962;2023-07-24T09:23:07;19.60;99.90
4749;DHT22;2388;53.582;9.962;2023-07-24T09:25:34;19.70;99.90
4749;DHT22;2388;53.582;9.962;2023-07-24T09:28:00;19.70;99.90
4749;DHT22;2388;53.582;9.962;2023-07-24T09:30:25;19.70;99.90
4749;DHT22;2388;53.582;9.962;2023-07-24T09:32:54;19.60;99.90
4749;DHT22;2388;53.582;9.962;2023-07-24T09:35:21;19.60;99.90
4749;DHT22;2388;53.582;9.962;2023-07-24T09:37:51;19.60;99.90
4749;DHT22;2388;53.582;9.962;2023-07-24T09:40:26;19.60;99.90
4749;DHT22;2388;53.582;9.962;2023-07-24T09:42:51;19.70;99.90
4749;DHT22;2388;53.582;9.962;2023-07-24T09:45:17;19.70;99.90
4749;DHT22;2388;53.582;9.962;2023-07-24T09:47:43;19.70;99.90
4749;DHT22;2388;53.582;9.962;2023-07-24T09:50:09;19.80;99.90
4749;DHT22;2388;53.582;9.962;2023-07-24T09:52:36;19.80;99.90
4749;DHT22;2388;53.582;9.962;2023-07-24T09:55:12;19.80;99.90
4749;DHT22;2388;53.582;9.962;2023-07-24T09:57:41;19.90;99.90
4749;DHT22;2388;53.582;9.962;2023-07-24T10:00:09;19.90;99.90
4749;DHT22;2388;53.582;9.962;2023-07-24T10:02:35;19.90;99.90
4749;DHT22;2388;53.582;9.962;2023-07-24T10:05:01;19.90;99.90
4749;DHT22;2388;53.582;9.962;2023-07-24T10:07:27;20.00;99.90
4749;DHT22;2388;53.582;9.962;2023-07-24T10:09:53;20.00;99.90
4749;DHT22;2388;53.582;9.962;2023-07-24T10:12:21;20.00;99.90
4749;DHT22;2388;53.582;9.962;2023-07-24T10:14:48;20.00;99.90
4749;DHT22;2388;53.582;9.962;2023-07-24T10:17:14;20.00;99.90
4749;DHT22;2388;53.582;9.962;2023-07-24T10:19:43;20.10;99.90
4749;DHT22;2388;53.582;9.962;2023-07-24T10:22:18;20.10;99.90
4749;DHT22;2388;53.582;9.962;2023-07-24T10:24:45;20.10;99.90
4749;DHT22;2388;53.582;9.962;2023-07-24T10:27:11;20.20;99.90
4749;DHT22;2388;53.582;9.962;2023-07-24T10:29:37;20.20;99.90
4749;DHT22;2388;53.582;9.962;2023-07-24T10:32:03;20.20;99.90
4749;DHT22;2388;53.582;9.962;2023-07-24T10:34:38;20.20;99.90
4749;DHT22;2388;53.582;9.962;2023-07-24T10:37:09;20.30;99.90
4749;DHT22;2388;53.582;9.962;2023-07-24T10:39:41;20.30;99.90
4749;DHT22;2388;53.582;9.962;2023-07-24T10:42:10;20.40;99.90
4749;DHT22;2388;53.582;9.962;2023-07-24T10:44:37;20.50;99.90
4749;DHT22;2388;53.582;9.962;2023-07-24T10:47:02;20.50;99.90
4749;DHT22;2388;53.582;9.962;2023-07-24T10:49:28;20.50;99.90
4749;DHT22;2388;53.582;9.962;2023-07-24T10:51:58;20.50;99.90
4749;DHT22;2388;53.582;9.962;2023-07-24T10:54:24;20.40;99.90
4749;DHT22;2388;53.582;9.962;2023-07-24T10:56:50;20.40;99.90
4749;DHT22;2388;53.582;9.962;2023-07-24T10:59:22;20.40;99.90
4749;DHT22;2388;53.582;9.962;2023-07-24T11:01:47;20.50;99.90
4749;DHT22;2388;53.582;9.962;2023-07-24T11:04:13;20.50;99.90
4749;DHT22;2388;53.582;9.962;2023-07-24T11:06:39;20.50;99.90
4749;DHT22;2388;53.582;9.962;2023-07-24T11:09:05;20.50;99.90
4749;DHT22;2388;53.582;9.962;2023-07-24T11:11:32;20.50;99.90
4749;DHT22;2388;53.582;9.962;2023-07-24T11:13:58;20.60;99.90
4749;DHT22;2388;53.582;9.962;2023-07-24T11:16:25;20.60;99.90
4749;DHT22;2388;53.582;9.962;2023-07-24T11:18:51;20.70;99.90
4749;DHT22;2388;53.582;9.962;2023-07-24T11:21:22;20.80;99.90
4749;DHT22;2388;53.582;9.962;2023-07-24T11:23:48;21.00;99.90
4749;DHT22;2388;53.582;9.962;2023-07-24T11:26:14;21.10;99.90
4749;DHT22;2388;53.582;9.962;2023-07-24T11:28:40;21.20;99.90
4749;DHT22;2388;53.582;9.962;2023-07-24T11:31:06;21.20;99.90
4749;DHT22;2388;53.582;9.962;2023-07-24T11:33:31;21.10;99.90
4749;DHT22;2388;53.582;9.962;2023-07-24T11:35:57;21.10;99.90
4749;DHT22;2388;53.582;9.962;2023-07-24T11:38:23;21.10;99.90
4749;DHT22;2388;53.582;9.962;2023-07-24T11:40:49;21.00;99.90
4749;DHT22;2388;53.582;9.962;2023-07-24T11:43:20;21.00;99.90
4749;DHT22;2388;53.582;9.962;2023-07-24T11:45:46;21.10;99.90
4749;DHT22;2388;53.582;9.962;2023-07-24T11:48:14;21.10;99.90
4749;DHT22;2388;53.582;9.962;2023-07-24T11:51:06;21.20;99.90
4749;DHT22;2388;53.582;9.962;2023-07-24T11:53:31;21.30;99.90
4749;DHT22;2388;53.582;9.962;2023-07-24T11:55:58;21.40;99.90
4749;DHT22;2388;53.582;9.962;2023-07-24T11:58:28;21.40;99.90
4749;DHT22;2388;53.582;9.962;2023-07-24T12:00:54;21.50;99.90
4749;DHT22;2388;53.582;9.962;2023-07-24T12:03:25;21.60;99.90
4749;DHT22;2388;53.582;9.962;2023-07-24T12:05:51;21.60;99.90
4749;DHT22;2388;53.582;9.962;2023-07-24T12:08:34;21.60;99.90
4749;DHT22;2388;53.582;9.962;2023-07-24T12:11:01;21.60;99.90
4749;DHT22;2388;53.582;9.962;2023-07-24T12:13:27;21.60;99.90
4749;DHT22;2388;53.582;9.962;2023-07-24T12:15:53;21.60;99.90
4749;DHT22;2388;53.582;9.962;2023-07-24T12:18:19;21.70;99.90
4749;DHT22;2388;53.582;9.962;2023-07-24T12:20:44;21.70;99.90
4749;DHT22;2388;53.582;9.962;2023-07-24T12:23:10;21.60;99.90
4749;DHT22;2388;53.582;9.962;2023-07-24T12:25:35;21.80;99.90
4749;DHT22;2388;53.582;9.962;2023-07-24T12:28:01;22.10;99.90
4749;DHT22;2388;53.582;9.962;2023-07-24T12:30:26;22.40;99.90
4749;DHT22;2388;53.582;9.962;2023-07-24T12:32:52;22.70;99.90
4749;DHT22;2388;53.582;9.962;2023-07-24T12:35:18;22.70;99.90
4749;DHT22;2388;53.582;9.962;2023-07-24T12:37:44;22.50;99.90
4749;DHT22;2388;53.582;9.962;2023-07-24T12:40:11;22.40;99.90
4749;DHT22;2388;53.582;9.962;2023-07-24T12:42:36;22.20;99.90
4749;DHT22;2388;53.582;9.962;2023-07-24T12:45:02;22.10;99.90
4749;DHT22;2388;53.582;9.962;2023-07-24T12:47:29;22.30;99.90
4749;DHT22;2388;53.582;9.962;2023-07-24T12:49:54;22.70;99.90
4749;DHT22;2388;53.582;9.962;2023-07-24T12:52:21;23.00;99.90
4749;DHT22;2388;53.582;9.962;2023-07-24T12:54:47;23.00;99.90
4749;DHT22;2388;53.582;9.962;2023-07-24T12:57:12;23.10;99.90
4749;DHT22;2388;53.582;9.962;2023-07-24T12:59:38;23.30;99.90
4749;DHT22;2388;53.582;9.962;2023-07-24T13:02:03;23.40;99.90
4749;DHT22;2388;53.582;9.962;2023-07-24T13:04:29;23.60;99.90
4749;DHT22;2388;53.582;9.962;2023-07-24T13:06:54;23.90;99.90
4749;DHT22;2388;53.582;9.962;2023-07-24T13:09:20;24.00;99.90
4749;DHT22;2388;53.582;9.962;2023-07-24T13:11:45;24.10;99.90
4749;DHT22;2388;53.582;9.962;2023-07-24T13:14:14;24.40;99.90
4749;DHT22;2388;53.582;9.962;2023-07-24T13:16:40;24.60;99.90
4749;DHT22;2388;53.582;9.962;2023-07-24T13:19:05;24.60;99.90
4749;DHT22;2388;53.582;9.962;2023-07-24T13:21:31;24.50;99.90
4749;DHT22;2388;53.582;9.962;2023-07-24T13:23:56;24.40;99.90
4749;DHT22;2388;53.582;9.962;2023-07-24T13:26:22;24.20;99.90
4749;DHT22;2388;53.582;9.962;2023-07-24T13:28:48;23.90;99.90
4749;DHT22;2388;53.582;9.962;2023-07-24T13:31:14;24.20;99.90
4749;DHT22;2388;53.582;9.962;2023-07-24T13:33:40;24.40;99.90
4749;DHT22;2388;53.582;9.962;2023-07-24T13:36:05;24.60;99.90
4749;DHT22;2388;53.582;9.962;2023-07-24T13:38:31;24.80;99.90
4749;DHT22;2388;53.582;9.962;2023-07-24T13:40:58;24.90;99.90
4749;DHT22;2388;53.582;9.962;2023-07-24T13:43:23;24.60;99.90
4749;DHT22;2388;53.582;9.962;2023-07-24T13:45:48;24.30;99.90
4749;DHT22;2388;53.582;9.962;2023-07-24T13:48:14;24.20;99.90
4749;DHT22;2388;53.582;9.962;2023-07-24T13:50:40;24.10;99.90
4749;DHT22;2388;53.582;9.962;2023-07-24T13:53:05;24.30;99.90
4749;DHT22;2388;53.582;9.962;2023-07-24T13:55:31;24.00;99.90
4749;DHT22;2388;53.582;9.962;2023-07-24T13:57:56;24.10;99.90
4749;DHT22;2388;53.582;9.962;2023-07-24T14:00:22;24.10;99.90
4749;DHT22;2388;53.582;9.962;2023-07-24T14:02:47;24.10;99.90
4749;DHT22;2388;53.582;9.962;2023-07-24T14:05:13;24.20;99.90
4749;DHT22;2388;53.582;9.962;2023-07-24T14:07:38;24.20;99.90
4749;DHT22;2388;53.582;9.962;2023-07-24T14:10:04;23.90;99.90
4749;DHT22;2388;53.582;9.962;2023-07-24T14:12:30;23.80;99.90
4749;DHT22;2388;53.582;9.962;2023-07-24T14:14:56;23.70;99.90
4749;DHT22;2388;53.582;9.962;2023-07-24T14:17:21;23.70;99.90
4749;DHT22;2388;53.582;9.962;2023-07-24T14:19:46;23.50;99.90
4749;DHT22;2388;53.582;9.962;2023-07-24T14:22:12;23.30;99.90
4749;DHT22;2388;53.582;9.962;2023-07-24T14:24:37;23.30;99.90
4749;DHT22;2388;53.582;9.962;2023-07-24T14:27:03;23.40;99.90
4749;DHT22;2388;53.582;9.962;2023-07-24T14:29:28;23.40;99.90
4749;DHT22;2388;53.582;9.962;2023-07-24T14:31:54;23.50;99.90
4749;DHT22;2388;53.582;9.962;2023-07-24T14:34:19;23.40;99.90
4749;DHT22;2388;53.582;9.962;2023-07-24T14:36:45;23.20;99.90
4749;DHT22;2388;53.582;9.962;2023-07-24T14:39:10;23.20;99.90
4749;DHT22;2388;53.582;9.962;2023-07-24T14:41:36;23.30;99.90
4749;DHT22;2388;53.582;9.962;2023-07-24T14:44:01;23.20;99.90
4749;DHT22;2388;53.582;9.962;2023-07-24T14:46:27;23.10;99.90
4749;DHT22;2388;53.582;9.962;2023-07-24T14:48:52;23.10;99.90
4749;DHT22;2388;53.582;9.962;2023-07-24T14:51:18;23.00;99.90
4749;DHT22;2388;53.582;9.962;2023-07-24T14:53:43;22.90;99.90
4749;DHT22;2388;53.582;9.962;2023-07-24T14:56:09;22.80;99.90
4749;DHT22;2388;53.582;9.962;2023-07-24T14:58:34;22.80;99.90
4749;DHT22;2388;53.582;9.962;2023-07-24T15:01:00;22.70;99.90
4749;DHT22;2388;53.582;9.962;2023-07-24T15:03:25;22.70;99.90
4749;DHT22;2388;53.582;9.962;2023-07-24T15:05:51;22.70;99.90
4749;DHT22;2388;53.582;9.962;2023-07-24T15:08:17;22.60;99.90
4749;DHT22;2388;53.582;9.962;2023-07-24T15:10:43;22.60;99.90
4749;DHT22;2388;53.582;9.962;2023-07-24T15:13:10;22.50;99.90
4749;DHT22;2388;53.582;9.962;2023-07-24T15:15:35;22.50;99.90
4749;DHT22;2388;53.582;9.962;2023-07-24T15:18:01;22.50;99.90
4749;DHT22;2388;53.582;9.962;2023-07-24T15:20:27;22.50;99.90
4749;DHT22;2388;53.582;9.962;2023-07-24T15:22:52;22.50;99.90
4749;DHT22;2388;53.582;9.962;2023-07-24T15:25:20;22.50;99.90
4749;DHT22;2388;53.582;9.962;2023-07-24T15:27:46;22.40;99.90
4749;DHT22;2388;53.582;9.962;2023-07-24T15:30:12;22.40;99.90
4749;DHT22;2388;53.582;9.962;2023-07-24T15:32:38;22.30;99.90
4749;DHT22;2388;53.582;9.962;2023-07-24T15:35:04;22.00;99.90
4749;DHT22;2388;53.582;9.962;2023-07-24T15:37:30;21.50;99.90
4749;DHT22;2388;53.582;9.962;2023-07-24T15:39:56;21.00;99.90
4749;DHT22;2388;53.582;9.962;2023-07-24T15:42:22;20.80;99.90
4749;DHT22;2388;53.582;9.962;2023-07-24T15:44:48;20.60;99.90
4749;DHT22;2388;53.582;9.962;2023-07-24T15:47:14;20.50;99.90
4749;DHT22;2388;53.582;9.962;2023-07-24T15:49:39;20.30;99.90
4749;DHT22;2388;53.582;9.962;2023-07-24T15:52:06;20.00;99.90
4749;DHT22;2388;53.582;9.962;2023-07-24T15:54:31;19.80;99.90